createdAt,value
2016-12-25T00:00:02.615Z,94.08
2016-12-25T00:01:02.875Z,94.46
2016-12-25T00:02:02.834Z,94.6
2016-12-25T00:03:02.795Z,94.7
2016-12-25T00:04:02.756Z,94.46
2016-12-25T00:05:02.714Z,94.13
2016-12-25T00:06:02.678Z,94.13
2016-12-25T00:07:02.635Z,94.51
2016-12-25T00:08:02.596Z,94.32
2016-12-25T00:09:02.252Z,94.42
2016-12-25T00:10:02.519Z,94.32
2016-12-25T00:11:02.176Z,94.23
2016-12-25T00:12:02.437Z,94.03
2016-12-25T00:13:02.399Z,94.79
2016-12-25T00:14:02.357Z,94.42
2016-12-25T00:15:02.316Z,95.17
2016-12-25T00:16:02.276Z,94.98
2016-12-25T00:17:02.244Z,95.07
2016-12-25T00:18:02.201Z,94.98
2016-12-25T00:19:01.853Z,94.79
2016-12-25T00:20:02.116Z,94.98
2016-12-25T00:21:02.076Z,94.89
2016-12-25T00:22:02.057Z,94.89
2016-12-25T00:23:01.997Z,94.79
2016-12-25T00:24:01.655Z,94.98
2016-12-25T00:25:01.919Z,94.89
2016-12-25T00:26:01.908Z,95.17
2016-12-25T00:27:01.839Z,95.17
2016-12-25T00:28:01.798Z,94.98
2016-12-25T00:29:01.759Z,94.89
2016-12-25T00:30:01.719Z,95.46
2016-12-25T00:31:01.675Z,95.46
2016-12-25T00:32:01.337Z,95.46
2016-12-25T00:33:01.295Z,95.27
2016-12-25T00:34:01.561Z,95.65
2016-12-25T00:35:01.521Z,95.36
2016-12-25T00:36:01.500Z,95.93
2016-12-25T00:37:01.137Z,95.93
2016-12-25T00:38:01.403Z,96.12
2016-12-25T00:39:01.360Z,96.12
2016-12-25T00:40:01.321Z,96.12
2016-12-25T00:41:01.281Z,95.74
2016-12-25T00:42:01.243Z,96.41
2016-12-25T00:43:01.202Z,96.41
2016-12-25T00:44:01.185Z,96.41
2016-12-25T00:45:01.123Z,96.31
2016-12-25T00:46:01.086Z,96.12
2016-12-25T00:47:01.042Z,96.03
2016-12-25T00:48:00.702Z,96.5
2016-12-25T00:49:00.965Z,96.03
2016-12-25T00:50:00.923Z,96.5
2016-12-25T00:51:00.608Z,96.88
2016-12-25T00:52:00.546Z,96.5
2016-12-25T00:53:00.807Z,96.5
2016-12-25T00:54:00.464Z,96.59
2016-12-25T00:55:00.726Z,96.5
2016-12-25T00:56:00.687Z,96.59
2016-12-25T00:57:00.348Z,96.59
2016-12-25T00:58:00.606Z,96.69
2016-12-25T00:59:00.566Z,96.78
2016-12-25T01:00:00.530Z,96.88
2016-12-25T01:01:00.486Z,97.07
2016-12-25T01:02:00.450Z,96.97
2016-12-25T01:03:00.108Z,97.07
2016-12-25T01:04:00.373Z,97.17
2016-12-25T01:05:00.029Z,97.07
2016-12-25T01:06:00.287Z,97.55
2016-12-25T01:06:59.952Z,97.17
2016-12-25T01:08:00.212Z,97.17
2016-12-25T01:08:59.870Z,97.45
2016-12-25T01:10:00.130Z,97.26
2016-12-25T01:10:59.790Z,97.45
2016-12-25T01:11:59.753Z,97.26
2016-12-25T01:13:00.012Z,97.45
2016-12-25T01:13:59.673Z,97.26
2016-12-25T01:14:59.933Z,97.36
2016-12-25T01:15:59.895Z,96.97
2016-12-25T01:16:59.552Z,96.97
2016-12-25T01:17:59.814Z,97.17
2016-12-25T01:18:59.776Z,97.36
2016-12-25T01:19:59.433Z,96.97
2016-12-25T01:20:59.697Z,97.45
2016-12-25T01:21:59.356Z,97.36
2016-12-25T01:22:59.616Z,96.93
2016-12-25T01:23:59.275Z,97.31
2016-12-25T01:24:59.538Z,97.31
2016-12-25T01:25:59.498Z,97.31
2016-12-25T01:26:59.465Z,97.22
2016-12-25T01:27:59.117Z,97.22
2016-12-25T01:28:59.383Z,97.41
2016-12-25T01:29:59.347Z,97.22
2016-12-25T01:30:58.996Z,97.22
2016-12-25T01:31:59.259Z,97.6
2016-12-25T01:32:59.221Z,97.22
2016-12-25T01:33:59.184Z,97.5
2016-12-25T01:34:59.139Z,97.69
2016-12-25T01:35:59.103Z,97.41
2016-12-25T01:36:59.063Z,97.22
2016-12-25T01:37:58.721Z,97.12
2016-12-25T01:38:58.989Z,97.22
2016-12-25T01:39:58.972Z,97.41
2016-12-25T01:40:58.906Z,97.41
2016-12-25T01:41:58.860Z,97.5
2016-12-25T01:42:58.825Z,97.5
2016-12-25T01:43:58.484Z,97.31
2016-12-25T01:44:58.747Z,97.41
2016-12-25T01:45:58.705Z,97.31
2016-12-25T01:46:58.667Z,97.12
2016-12-25T01:47:58.628Z,97.22
2016-12-25T01:48:58.587Z,97.22
2016-12-25T01:49:58.569Z,97.02
2016-12-25T01:50:58.508Z,97.02
2016-12-25T01:51:58.470Z,97.22
2016-12-25T01:52:58.434Z,97.02
2016-12-25T01:53:58.096Z,97.31
2016-12-25T01:54:58.350Z,97.31
2016-12-25T01:55:58.010Z,97.31
2016-12-25T01:56:58.274Z,97.31
2016-12-25T01:57:58.234Z,96.83
2016-12-25T01:58:58.196Z,96.93
2016-12-25T01:59:58.151Z,96.93
2016-12-25T02:00:58.114Z,96.83
2016-12-25T02:01:58.074Z,96.93
2016-12-25T02:02:58.039Z,96.74
2016-12-25T02:03:57.996Z,96.83
2016-12-25T02:04:57.959Z,96.93
2016-12-25T02:05:57.617Z,96.64
2016-12-25T02:06:57.882Z,96.64
2016-12-25T02:07:57.840Z,96.26
2016-12-25T02:08:57.799Z,96.74
2016-12-25T02:09:57.759Z,96.83
2016-12-25T02:10:57.721Z,96.83
2016-12-25T02:11:57.682Z,96.64
2016-12-25T02:12:57.644Z,96.93
2016-12-25T02:13:57.602Z,96.74
2016-12-25T02:14:57.563Z,96.74
2016-12-25T02:15:57.523Z,96.83
2016-12-25T02:16:57.194Z,96.83
2016-12-25T02:17:57.445Z,96.74
2016-12-25T02:18:57.407Z,96.93
2016-12-25T02:19:57.368Z,96.55
2016-12-25T02:20:57.024Z,97.41
2016-12-25T02:21:56.984Z,97.02
2016-12-25T02:22:57.246Z,97.41
2016-12-25T02:23:57.206Z,97.12
2016-12-25T02:24:57.169Z,97.12
2016-12-25T02:25:57.136Z,97.31
2016-12-25T02:26:57.114Z,97.12
2016-12-25T02:27:57.050Z,97.02
2016-12-25T02:28:57.037Z,97.02
2016-12-25T02:29:56.970Z,97.69
2016-12-25T02:30:56.933Z,97.31
2016-12-25T02:31:56.890Z,97.31
2016-12-25T02:32:56.852Z,97.5
2016-12-25T02:33:56.814Z,97.22
2016-12-25T02:34:56.776Z,97.6
2016-12-25T02:35:56.438Z,97.69
2016-12-25T02:36:56.695Z,97.31
2016-12-25T02:37:56.662Z,97.02
2016-12-25T02:38:56.619Z,97.31
2016-12-25T02:39:56.577Z,97.5
2016-12-25T02:40:56.540Z,97.69
2016-12-25T02:41:56.503Z,97.6
2016-12-25T02:42:56.163Z,97.69
2016-12-25T02:43:56.420Z,97.78
2016-12-25T02:44:56.079Z,97.97
2016-12-25T02:45:56.349Z,97.69
2016-12-25T02:46:56.302Z,97.88
2016-12-25T02:47:55.960Z,97.97
2016-12-25T02:48:56.226Z,97.97
2016-12-25T02:49:55.883Z,98.35
2016-12-25T02:50:56.144Z,97.83
2016-12-25T02:51:56.107Z,98.02
2016-12-25T02:52:56.064Z,97.83
2016-12-25T02:53:56.031Z,98.21
2016-12-25T02:54:55.986Z,98.3
2016-12-25T02:55:55.643Z,97.74
2016-12-25T02:56:55.909Z,97.92
2016-12-25T02:57:55.869Z,98.21
2016-12-25T02:58:55.528Z,98.4
2016-12-25T02:59:55.788Z,98.78
2016-12-25T03:00:55.751Z,98.49
2016-12-25T03:01:55.709Z,98.68
2016-12-25T03:02:55.668Z,98.49
2016-12-25T03:03:55.633Z,98.49
2016-12-25T03:04:55.591Z,98.49
2016-12-25T03:05:55.551Z,98.49
2016-12-25T03:06:55.514Z,98.68
2016-12-25T03:07:55.471Z,98.21
2016-12-25T03:08:55.433Z,98.11
2016-12-25T03:09:55.395Z,98.11
2016-12-25T03:10:55.050Z,99.06
2016-12-25T03:11:55.319Z,98.49
2016-12-25T03:12:55.274Z,98.49
2016-12-25T03:13:55.236Z,98.49
2016-12-25T03:14:55.195Z,98.3
2016-12-25T03:15:55.155Z,98.68
2016-12-25T03:16:55.116Z,98.87
2016-12-25T03:17:55.074Z,98.21
2016-12-25T03:18:55.037Z,98.87
2016-12-25T03:19:54.999Z,98.59
2016-12-25T03:20:54.957Z,98.87
2016-12-25T03:21:54.920Z,98.68
2016-12-25T03:22:54.902Z,98.78
2016-12-25T03:23:54.842Z,98.68
2016-12-25T03:24:54.802Z,98.87
2016-12-25T03:25:54.757Z,99.26
2016-12-25T03:26:54.419Z,99.44
2016-12-25T03:27:54.680Z,99.06
2016-12-25T03:28:54.640Z,99.16
2016-12-25T03:29:54.600Z,99.06
2016-12-25T03:30:54.560Z,98.78
2016-12-25T03:31:54.521Z,98.97
2016-12-25T03:32:54.486Z,99.16
2016-12-25T03:33:54.446Z,99.16
2016-12-25T03:34:54.100Z,99.16
2016-12-25T03:35:54.361Z,99.26
2016-12-25T03:36:54.322Z,99.26
2016-12-25T03:37:54.284Z,99.35
2016-12-25T03:38:54.247Z,99.35
2016-12-25T03:39:54.203Z,99.63
2016-12-25T03:40:54.164Z,99.54
2016-12-25T03:41:53.823Z,99.82
2016-12-25T03:42:54.486Z,99.73
2016-12-25T03:43:54.048Z,99.35
2016-12-25T03:44:54.008Z,99.99
2016-12-25T03:45:53.967Z,99.91
2016-12-25T03:46:53.928Z,99.99
2016-12-25T03:47:53.885Z,99.99
2016-12-25T03:48:53.848Z,99.99
2016-12-25T03:49:53.804Z,99.91
2016-12-25T03:50:53.466Z,99.91
2016-12-25T03:51:53.729Z,99.82
2016-12-25T03:52:53.689Z,99.73
2016-12-25T03:53:53.651Z,99.91
2016-12-25T03:54:53.608Z,99.63
2016-12-25T03:55:53.265Z,99.99
2016-12-25T03:56:53.529Z,99.99
2016-12-25T03:57:53.490Z,99.99
2016-12-25T03:58:53.152Z,99.91
2016-12-25T03:59:53.409Z,99.91
2016-12-25T04:00:53.078Z,99.91
2016-12-25T04:01:53.027Z,99.99
2016-12-25T04:02:53.291Z,99.91
2016-12-25T04:03:52.948Z,99.73
2016-12-25T04:04:53.212Z,99.91
2016-12-25T04:05:53.171Z,99.73
2016-12-25T04:06:53.132Z,99.99
2016-12-25T04:07:53.092Z,99.99
2016-12-25T04:08:53.053Z,99.99
2016-12-25T04:09:52.711Z,99.99
2016-12-25T04:10:52.973Z,99.99
2016-12-25T04:11:52.930Z,99.99
2016-12-25T04:12:52.894Z,99.82
2016-12-25T04:13:52.853Z,99.99
2016-12-25T04:14:52.812Z,99.99
2016-12-25T04:15:52.773Z,99.99
2016-12-25T04:16:52.737Z,99.99
2016-12-25T04:17:52.390Z,99.99
2016-12-25T04:18:52.653Z,99.99
2016-12-25T04:19:52.614Z,99.99
2016-12-25T04:20:52.574Z,99.99
2016-12-25T04:21:52.231Z,99.99
2016-12-25T04:22:52.496Z,99.99
2016-12-25T04:23:52.461Z,99.99
2016-12-25T04:24:52.116Z,99.99
2016-12-25T04:25:52.373Z,99.99
2016-12-25T04:26:52.340Z,99.99
2016-12-25T04:27:52.295Z,99.99
2016-12-25T04:28:52.258Z,99.99
2016-12-25T04:29:52.213Z,99.99
2016-12-25T04:30:52.175Z,99.99
2016-12-25T04:31:52.136Z,99.99
2016-12-25T04:32:52.099Z,99.99
2016-12-25T04:33:52.055Z,99.99
2016-12-25T04:34:51.716Z,99.99
2016-12-25T04:35:51.978Z,99.99
2016-12-25T04:36:51.937Z,99.99
2016-12-25T04:37:51.596Z,99.99
2016-12-25T04:38:51.859Z,99.99
2016-12-25T04:39:51.821Z,99.99
2016-12-25T04:40:51.780Z,99.99
2016-12-25T04:41:51.740Z,99.99
2016-12-25T04:42:51.703Z,99.99
2016-12-25T04:43:51.660Z,99.99
2016-12-25T04:44:51.318Z,99.99
2016-12-25T04:45:51.585Z,99.99
2016-12-25T04:46:51.545Z,99.99
2016-12-25T04:47:51.503Z,99.99
2016-12-25T04:48:51.463Z,99.99
2016-12-25T04:49:51.421Z,99.99
2016-12-25T04:50:51.076Z,99.99
2016-12-25T04:51:51.344Z,99.99
2016-12-25T04:52:51.300Z,99.99
2016-12-25T04:53:51.263Z,99.99
2016-12-25T04:54:50.925Z,99.99
2016-12-25T04:55:51.180Z,99.99
2016-12-25T04:56:51.142Z,99.99
2016-12-25T04:57:50.800Z,99.99
2016-12-25T04:58:51.065Z,99.99
2016-12-25T04:59:51.023Z,99.99
2016-12-25T05:00:50.986Z,99.99
2016-12-25T05:01:50.643Z,99.99
2016-12-25T05:02:50.904Z,99.99
2016-12-25T05:03:50.562Z,99.99
2016-12-25T05:04:50.825Z,99.99
2016-12-25T05:05:50.783Z,99.99
2016-12-25T05:06:50.443Z,99.99
2016-12-25T05:07:50.401Z,99.99
2016-12-25T05:08:50.665Z,99.99
2016-12-25T05:09:50.624Z,99.99
2016-12-25T05:10:50.591Z,99.99
2016-12-25T05:11:50.547Z,99.99
2016-12-25T05:12:50.504Z,99.82
2016-12-25T05:13:50.462Z,99.99
2016-12-25T05:14:50.123Z,99.99
2016-12-25T05:15:50.385Z,99.99
2016-12-25T05:16:50.346Z,99.99
2016-12-25T05:17:50.304Z,99.91
2016-12-25T05:18:50.266Z,99.99
2016-12-25T05:19:50.227Z,99.91
2016-12-25T05:20:50.185Z,99.99
2016-12-25T05:21:50.148Z,99.73
2016-12-25T05:22:49.807Z,99.63
2016-12-25T05:23:50.067Z,99.16
2016-12-25T05:24:50.025Z,99.16
2016-12-25T05:25:49.985Z,99.35
2016-12-25T05:26:49.945Z,98.49
2016-12-25T05:27:49.605Z,98.11
2016-12-25T05:28:49.563Z,98.59
2016-12-25T05:29:49.825Z,98.59
2016-12-25T05:30:49.790Z,98.4
2016-12-25T05:31:49.745Z,98.59
2016-12-25T05:32:49.705Z,98.02
2016-12-25T05:33:49.668Z,97.92
2016-12-25T05:34:49.325Z,98.49
2016-12-25T05:35:49.283Z,98.21
2016-12-25T05:36:49.547Z,98.02
2016-12-25T05:37:49.509Z,98.3
2016-12-25T05:38:49.467Z,97.83
2016-12-25T05:39:49.433Z,97.74
2016-12-25T05:40:49.088Z,97.83
2016-12-25T05:41:49.045Z,97.55
2016-12-25T05:42:49.309Z,97.26
2016-12-25T05:43:49.271Z,97.36
2016-12-25T05:44:49.233Z,97.17
2016-12-25T05:45:49.187Z,97.45
2016-12-25T05:46:49.149Z,97.45
2016-12-25T05:47:49.110Z,97.64
2016-12-25T05:48:49.068Z,97.36
2016-12-25T05:49:49.031Z,97.36
2016-12-25T05:50:48.991Z,96.97
2016-12-25T05:51:48.957Z,96.69
2016-12-25T05:52:48.913Z,96.69
2016-12-25T05:53:48.569Z,96.78
2016-12-25T05:54:48.829Z,96.59
2016-12-25T05:55:48.487Z,96.59
2016-12-25T05:56:48.751Z,96.59
2016-12-25T05:57:48.709Z,96.78
2016-12-25T05:58:48.367Z,96.69
2016-12-25T05:59:48.638Z,96.59
2016-12-25T06:00:48.590Z,96.22
2016-12-25T06:01:48.249Z,96.59
2016-12-25T06:02:48.514Z,96.31
2016-12-25T06:03:48.169Z,96.55
2016-12-25T06:04:48.431Z,96.59
2016-12-25T06:05:48.390Z,96.5
2016-12-25T06:06:48.351Z,96.5
2016-12-25T06:07:48.311Z,96.5
2016-12-25T06:08:48.273Z,96.31
2016-12-25T06:09:47.931Z,96.5
2016-12-25T06:10:48.219Z,96.69
2016-12-25T06:11:48.153Z,96.22
2016-12-25T06:12:48.115Z,96.31
2016-12-25T06:13:48.074Z,96.41
2016-12-25T06:14:48.033Z,96.31
2016-12-25T06:15:47.995Z,96.31
2016-12-25T06:16:47.953Z,96.41
2016-12-25T06:17:47.913Z,96.41
2016-12-25T06:18:47.873Z,96.5
2016-12-25T06:19:47.831Z,96.69
2016-12-25T06:20:47.794Z,96.41
2016-12-25T06:21:47.453Z,96.41
2016-12-25T06:22:47.713Z,96.5
2016-12-25T06:23:47.674Z,96.41
2016-12-25T06:24:47.332Z,96.5
2016-12-25T06:25:47.293Z,95.84
2016-12-25T06:26:47.254Z,96.41
2016-12-25T06:27:47.515Z,96.64
2016-12-25T06:28:47.478Z,96.17
2016-12-25T06:29:47.136Z,95.89
2016-12-25T06:30:47.398Z,95.79
2016-12-25T06:31:47.359Z,95.7
2016-12-25T06:32:47.317Z,95.41
2016-12-25T06:33:46.988Z,95.41
2016-12-25T06:34:47.240Z,95.51
2016-12-25T06:35:47.197Z,95.7
2016-12-25T06:36:47.164Z,94.84
2016-12-25T06:37:46.816Z,94.84
2016-12-25T06:38:46.776Z,94.93
2016-12-25T06:39:47.039Z,94.93
2016-12-25T06:40:47.000Z,94.84
2016-12-25T06:41:46.957Z,95.22
2016-12-25T06:42:46.616Z,94.93
2016-12-25T06:43:46.880Z,94.84
2016-12-25T06:44:46.843Z,94.93
2016-12-25T06:45:46.800Z,95.03
2016-12-25T06:46:46.762Z,95.12
2016-12-25T06:47:46.718Z,94.93
2016-12-25T06:48:46.682Z,94.84
2016-12-25T06:49:46.643Z,94.84
2016-12-25T06:50:46.601Z,95.7
2016-12-25T06:51:46.259Z,95.51
2016-12-25T06:52:46.216Z,95.6
2016-12-25T06:53:46.486Z,95.41
2016-12-25T06:54:46.443Z,95.41
2016-12-25T06:55:46.402Z,95.41
2016-12-25T06:56:46.362Z,95.46
2016-12-25T06:57:46.020Z,95.74
2016-12-25T06:58:46.280Z,95.46
2016-12-25T06:59:46.241Z,95.79
2016-12-25T07:00:46.201Z,96.03
2016-12-25T07:01:46.167Z,95.7
2016-12-25T07:02:46.126Z,95.79
2016-12-25T07:03:46.086Z,95.98
2016-12-25T07:04:46.048Z,95.6
2016-12-25T07:05:46.004Z,95.55
2016-12-25T07:06:45.963Z,95.55
2016-12-25T07:07:45.926Z,95.41
2016-12-25T07:08:45.884Z,95.41
2016-12-25T07:09:45.843Z,95.74
2016-12-25T07:10:45.804Z,95.31
2016-12-25T07:11:45.770Z,95.17
2016-12-25T07:12:45.726Z,95.17
2016-12-25T07:13:45.687Z,95.6
2016-12-25T07:14:45.342Z,95.79
2016-12-25T07:15:45.606Z,95.65
2016-12-25T07:16:45.567Z,94.98
2016-12-25T07:17:45.526Z,94.65
2016-12-25T07:18:45.487Z,94.79
2016-12-25T07:19:45.448Z,95.03
2016-12-25T07:20:45.405Z,95.03
2016-12-25T07:21:45.366Z,95.03
2016-12-25T07:22:45.324Z,95.31
2016-12-25T07:23:44.982Z,95.22
2016-12-25T07:24:45.251Z,94.84
2016-12-25T07:25:45.208Z,95.41
2016-12-25T07:26:45.167Z,94.98
2016-12-25T07:27:45.128Z,95.41
2016-12-25T07:28:44.803Z,95.17
2016-12-25T07:29:45.048Z,95.31
2016-12-25T07:30:45.009Z,95.03
2016-12-25T07:31:44.974Z,94.84
2016-12-25T07:32:44.931Z,95.12
2016-12-25T07:33:44.584Z,95.03
2016-12-25T07:34:44.846Z,95.03
2016-12-25T07:35:44.507Z,95.03
2016-12-25T07:36:44.466Z,95.12
2016-12-25T07:37:44.426Z,95.03
2016-12-25T07:38:44.691Z,94.84
2016-12-25T07:39:44.651Z,95.03
2016-12-25T07:40:44.312Z,95.03
2016-12-25T07:41:44.569Z,94.56
2016-12-25T07:42:44.229Z,95.03
2016-12-25T07:43:44.490Z,94.93
2016-12-25T07:44:44.153Z,94.93
2016-12-25T07:45:44.411Z,94.74
2016-12-25T07:46:44.371Z,94.46
2016-12-25T07:47:44.331Z,94.56
2016-12-25T07:48:44.292Z,94.74
2016-12-25T07:49:44.252Z,94.08
2016-12-25T07:50:44.214Z,94.27
2016-12-25T07:51:43.870Z,94.46
2016-12-25T07:52:44.131Z,94.46
2016-12-25T07:53:44.093Z,94.27
2016-12-25T07:54:44.054Z,94.08
2016-12-25T07:55:44.014Z,93.8
2016-12-25T07:56:43.672Z,93.7
2016-12-25T07:57:43.942Z,93.7
2016-12-25T07:58:43.894Z,94.27
2016-12-25T07:59:43.554Z,93.7
2016-12-25T08:00:43.517Z,93.6
2016-12-25T08:01:43.775Z,93.8
2016-12-25T08:02:43.736Z,93.41
2016-12-25T08:03:43.392Z,93.23
2016-12-25T08:04:43.656Z,93.13
2016-12-25T08:05:43.615Z,92.66
2016-12-25T08:06:43.575Z,92.75
2016-12-25T08:07:43.539Z,91.89
2016-12-25T08:08:43.497Z,92.09
2016-12-25T08:09:43.458Z,91.33
2016-12-25T08:10:43.115Z,91.42
2016-12-25T08:11:43.382Z,91.61
2016-12-25T08:12:43.335Z,91.52
2016-12-25T08:13:43.299Z,90.76
2016-12-25T08:14:43.260Z,90.76
2016-12-25T08:15:43.222Z,90.95
2016-12-25T08:16:43.181Z,90.47
2016-12-25T08:17:43.138Z,90.57
2016-12-25T08:18:43.100Z,90.76
2016-12-25T08:19:43.058Z,90.38
2016-12-25T08:20:43.023Z,90.28
2016-12-25T08:21:42.984Z,90
2016-12-25T08:22:42.638Z,90.19
2016-12-25T08:23:42.902Z,90.47
2016-12-25T08:24:42.864Z,90.28
2016-12-25T08:25:42.824Z,90.19
2016-12-25T08:26:42.481Z,90.28
2016-12-25T08:27:42.745Z,90.19
2016-12-25T08:28:42.702Z,90.38
2016-12-25T08:29:42.662Z,90.38
2016-12-25T08:30:42.321Z,90.19
2016-12-25T08:31:42.279Z,90.76
2016-12-25T08:32:42.545Z,90.47
2016-12-25T08:33:42.509Z,91.04
2016-12-25T08:34:42.463Z,91.24
2016-12-25T08:35:42.121Z,90.57
2016-12-25T08:36:42.384Z,90.76
2016-12-25T08:37:42.052Z,90.47
2016-12-25T08:38:42.304Z,90.66
2016-12-25T08:39:42.277Z,90.38
2016-12-25T08:40:42.224Z,90.47
2016-12-25T08:41:42.190Z,90.66
2016-12-25T08:42:42.149Z,90.28
2016-12-25T08:43:41.813Z,90.38
2016-12-25T08:44:42.071Z,90.09
2016-12-25T08:45:42.025Z,90.38
2016-12-25T08:46:41.688Z,89.72
2016-12-25T08:47:41.644Z,89.81
2016-12-25T08:48:41.906Z,90.19
2016-12-25T08:49:41.567Z,90.28
2016-12-25T08:50:41.827Z,89.81
2016-12-25T08:51:41.788Z,90
2016-12-25T08:52:41.750Z,89.9
2016-12-25T08:53:41.414Z,89.62
2016-12-25T08:54:41.673Z,89.33
2016-12-25T08:55:41.631Z,89.33
2016-12-25T08:56:41.597Z,89.33
2016-12-25T08:57:41.552Z,89.33
2016-12-25T08:58:41.207Z,89.24
2016-12-25T08:59:41.174Z,89.24
2016-12-25T09:00:41.433Z,88.86
2016-12-25T09:01:41.398Z,88.86
2016-12-25T09:02:41.365Z,88.86
2016-12-25T09:03:41.317Z,88.86
2016-12-25T09:04:41.275Z,88.67
2016-12-25T09:05:41.241Z,89.05
2016-12-25T09:06:41.198Z,88.67
2016-12-25T09:07:41.159Z,88.76
2016-12-25T09:08:41.123Z,88.95
2016-12-25T09:09:41.087Z,89.14
2016-12-25T09:10:41.047Z,89.05
2016-12-25T09:11:41.004Z,88.57
2016-12-25T09:12:40.967Z,88.67
2016-12-25T09:13:40.633Z,88.95
2016-12-25T09:14:40.883Z,88.86
2016-12-25T09:15:40.845Z,88.48
2016-12-25T09:16:40.808Z,88.1
2016-12-25T09:17:40.765Z,87.82
2016-12-25T09:18:40.724Z,88.01
2016-12-25T09:19:40.685Z,88.1
2016-12-25T09:20:40.645Z,87.48
2016-12-25T09:21:40.605Z,87.19
2016-12-25T09:22:40.568Z,87.1
2016-12-25T09:23:40.525Z,86.77
2016-12-25T09:24:40.491Z,86.63
2016-12-25T09:25:40.452Z,86.63
2016-12-25T09:26:40.411Z,86.91
2016-12-25T09:27:40.371Z,87.29
2016-12-25T09:28:40.330Z,86.91
2016-12-25T09:29:39.991Z,87.38
2016-12-25T09:30:40.278Z,87.48
2016-12-25T09:31:40.214Z,87.29
2016-12-25T09:32:40.173Z,87.48
2016-12-25T09:33:40.144Z,87.19
2016-12-25T09:34:40.097Z,87.19
2016-12-25T09:35:40.057Z,87.67
2016-12-25T09:36:39.716Z,87.38
2016-12-25T09:37:39.978Z,87.67
2016-12-25T09:38:39.640Z,87.76
2016-12-25T09:39:39.901Z,87.38
2016-12-25T09:40:39.558Z,87.38
2016-12-25T09:41:39.822Z,87.29
2016-12-25T09:42:39.483Z,87.01
2016-12-25T09:43:39.759Z,86.72
2016-12-25T09:44:39.402Z,86.91
2016-12-25T09:45:39.664Z,86.53
2016-12-25T09:46:39.630Z,86.91
2016-12-25T09:47:39.588Z,86.91
2016-12-25T09:48:39.549Z,86.91
2016-12-25T09:49:39.512Z,87.19
2016-12-25T09:50:39.473Z,86.91
2016-12-25T09:51:39.132Z,86.91
2016-12-25T09:52:39.392Z,87.1
2016-12-25T09:53:39.050Z,87.01
2016-12-25T09:54:39.314Z,86.15
2016-12-25T09:55:39.277Z,86.15
2016-12-25T09:56:38.936Z,85.86
2016-12-25T09:57:39.197Z,85.86
2016-12-25T09:58:39.166Z,85.86
2016-12-25T09:59:38.821Z,86.34
2016-12-25T10:00:39.083Z,85.86
2016-12-25T10:01:39.044Z,86.15
2016-12-25T10:02:38.702Z,85.77
2016-12-25T10:03:38.968Z,85.77
2016-12-25T10:04:38.925Z,85.3
2016-12-25T10:05:38.891Z,85.3
2016-12-25T10:06:38.858Z,85.3
2016-12-25T10:07:38.809Z,85.39
2016-12-25T10:08:38.774Z,85.39
2016-12-25T10:09:38.760Z,84.82
2016-12-25T10:10:38.694Z,84.82
2016-12-25T10:11:38.652Z,84.53
2016-12-25T10:12:38.616Z,84.82
2016-12-25T10:13:38.583Z,84.63
2016-12-25T10:14:38.237Z,84.63
2016-12-25T10:15:38.499Z,84.72
2016-12-25T10:16:38.157Z,85.11
2016-12-25T10:17:38.419Z,84.72
2016-12-25T10:18:38.381Z,83.78
2016-12-25T10:19:38.342Z,83.87
2016-12-25T10:20:38.000Z,84.06
2016-12-25T10:21:38.264Z,84.06
2016-12-25T10:22:38.226Z,84.25
2016-12-25T10:23:38.191Z,84.06
2016-12-25T10:24:37.846Z,84.16
2016-12-25T10:25:37.806Z,83.44
2016-12-25T10:26:38.072Z,83.2
2016-12-25T10:27:38.040Z,84.58
2016-12-25T10:28:37.992Z,83.82
2016-12-25T10:29:37.955Z,83.62
2016-12-25T10:30:37.922Z,83.91
2016-12-25T10:31:37.576Z,83.25
2016-12-25T10:32:37.835Z,83.06
2016-12-25T10:33:37.800Z,82.58
2016-12-25T10:34:37.763Z,82.49
2016-12-25T10:35:37.725Z,82.29
2016-12-25T10:36:37.684Z,82.29
2016-12-25T10:37:37.642Z,82.2
2016-12-25T10:38:37.615Z,82.01
2016-12-25T10:39:37.572Z,81.73
2016-12-25T10:40:37.227Z,81.63
2016-12-25T10:41:37.189Z,81.44
2016-12-25T10:42:37.453Z,80.96
2016-12-25T10:43:37.418Z,81.1
2016-12-25T10:44:37.382Z,80.44
2016-12-25T10:45:37.337Z,80.24
2016-12-25T10:46:37.299Z,80.15
2016-12-25T10:47:37.259Z,79.86
2016-12-25T10:48:37.223Z,79.86
2016-12-25T10:49:37.186Z,79.68
2016-12-25T10:50:37.149Z,79.14
2016-12-25T10:51:37.138Z,78.1
2016-12-25T10:52:37.070Z,77.62
2016-12-25T10:53:37.056Z,76.86
2016-12-25T10:54:36.992Z,76.67
2016-12-25T10:55:36.960Z,76.2
2016-12-25T10:56:36.922Z,77.05
2016-12-25T10:57:36.881Z,77.05
2016-12-25T10:58:36.543Z,77.34
2016-12-25T10:59:36.808Z,77.53
2016-12-25T11:00:36.466Z,77.15
2016-12-25T11:01:36.727Z,77.34
2016-12-25T11:02:36.695Z,77.05
2016-12-25T11:03:36.658Z,76.29
2016-12-25T11:04:36.316Z,76.29
2016-12-25T11:05:36.581Z,76.29
2016-12-25T11:06:36.242Z,76.14
2016-12-25T11:07:36.506Z,75.67
2016-12-25T11:08:36.174Z,75.76
2016-12-25T11:09:36.434Z,75.67
2016-12-25T11:10:36.397Z,74.8
2016-12-25T11:11:36.357Z,75.28
2016-12-25T11:12:36.015Z,75.72
2016-12-25T11:13:36.284Z,75.24
2016-12-25T11:14:36.246Z,75.24
2016-12-25T11:15:36.210Z,75.24
2016-12-25T11:16:36.172Z,75.53
2016-12-25T11:17:35.834Z,75.72
2016-12-25T11:18:36.097Z,75.05
2016-12-25T11:19:35.787Z,75.24
2016-12-25T11:20:36.023Z,75.15
2016-12-25T11:21:35.992Z,74.87
2016-12-25T11:22:35.960Z,75.24
2016-12-25T11:23:35.607Z,75.62
2016-12-25T11:24:35.873Z,75.15
2016-12-25T11:25:35.838Z,75.24
2016-12-25T11:26:35.801Z,74.77
2016-12-25T11:27:35.765Z,75.15
2016-12-25T11:28:35.727Z,74.96
2016-12-25T11:29:35.691Z,74.58
2016-12-25T11:30:35.653Z,74.58
2016-12-25T11:31:35.619Z,74.87
2016-12-25T11:32:35.574Z,74.96
2016-12-25T11:33:35.540Z,74.96
2016-12-25T11:34:35.201Z,74.48
2016-12-25T11:35:35.160Z,74.87
2016-12-25T11:36:35.424Z,75.24
2016-12-25T11:37:35.386Z,74.87
2016-12-25T11:38:35.354Z,74.87
2016-12-25T11:39:35.315Z,74.67
2016-12-25T11:40:35.276Z,74.58
2016-12-25T11:41:34.936Z,75.34
2016-12-25T11:42:35.202Z,75.24
2016-12-25T11:43:35.163Z,75.34
2016-12-25T11:44:35.126Z,74.96
2016-12-25T11:45:35.097Z,74.58
2016-12-25T11:46:35.053Z,74.58
2016-12-25T11:47:34.710Z,74.29
2016-12-25T11:48:34.971Z,73.82
2016-12-25T11:49:34.937Z,73.57
2016-12-25T11:50:34.903Z,72.86
2016-12-25T11:51:35.038Z,72.49
2016-12-25T11:52:34.835Z,72.33
2016-12-25T11:53:34.790Z,71.76
2016-12-25T11:54:34.454Z,72.81
2016-12-25T11:55:34.715Z,72.58
2016-12-25T11:56:34.700Z,72.62
2016-12-25T11:57:34.639Z,73.28
2016-12-25T11:58:34.611Z,72.62
2016-12-25T11:59:34.567Z,72.9
2016-12-25T12:00:34.529Z,72.9
2016-12-25T12:01:34.497Z,72.81
2016-12-25T12:02:34.460Z,72.9
2016-12-25T12:03:34.419Z,72.71
2016-12-25T12:04:34.378Z,72.62
2016-12-25T12:05:34.348Z,71.95
2016-12-25T12:06:34.001Z,71.86
2016-12-25T12:07:33.969Z,71.86
2016-12-25T12:08:34.233Z,72.62
2016-12-25T12:09:34.193Z,72.33
2016-12-25T12:10:34.157Z,72.67
2016-12-25T12:11:34.123Z,72.52
2016-12-25T12:12:34.086Z,72.77
2016-12-25T12:13:33.746Z,72.67
2016-12-25T12:14:33.707Z,72.39
2016-12-25T12:15:33.975Z,72.71
2016-12-25T12:16:33.936Z,72.81
2016-12-25T12:17:33.900Z,72.33
2016-12-25T12:18:33.859Z,72.81
2016-12-25T12:19:33.830Z,72.81
2016-12-25T12:20:33.483Z,72.81
2016-12-25T12:21:33.447Z,72.01
2016-12-25T12:22:33.410Z,72.39
2016-12-25T12:23:33.675Z,72.77
2016-12-25T12:24:33.337Z,72.49
2016-12-25T12:25:33.602Z,72.11
2016-12-25T12:26:33.572Z,72.58
2016-12-25T12:27:33.525Z,72.86
2016-12-25T12:28:33.489Z,72.49
2016-12-25T12:29:33.453Z,72.49
2016-12-25T12:30:33.415Z,72.86
2016-12-25T12:31:33.074Z,72.96
2016-12-25T12:32:33.344Z,72.77
2016-12-25T12:33:33.305Z,71.91
2016-12-25T12:34:33.272Z,71.72
2016-12-25T12:35:33.230Z,70.87
2016-12-25T12:36:33.193Z,71.34
2016-12-25T12:37:33.153Z,70.97
2016-12-25T12:38:33.118Z,70.77
2016-12-25T12:39:33.078Z,70.68
2016-12-25T12:40:33.042Z,70.58
2016-12-25T12:41:33.003Z,70.87
2016-12-25T12:42:32.967Z,71.15
2016-12-25T12:43:32.928Z,71.06
2016-12-25T12:44:32.892Z,70.58
2016-12-25T12:45:32.553Z,70.49
2016-12-25T12:46:32.815Z,70.68
2016-12-25T12:47:32.780Z,70.87
2016-12-25T12:48:32.744Z,70.49
2016-12-25T12:49:32.712Z,70.3
2016-12-25T12:50:32.667Z,70.58
2016-12-25T12:51:32.637Z,70.68
2016-12-25T12:52:32.591Z,70.68
2016-12-25T12:53:32.554Z,70.49